Итоги за сутки : Австралия

Индекс Название Дата Температура воздуха Влажность воздуха Эффективная температура Ветер Миним
видим
Атмосферное давление Облачность Осадки Снежный покров Число случев Макс.диаметр
мм
Число сроков
Т ср
(°C)
dТ ср
(°C)
adj dТ ср
(°C)
Т мин
(°C)
Т макс
(°C)
f ср
(%)
f мин
(%)
Тe мин
(°C)
Тe макс
(°C)
Тes макс
(°C)
ср
(м/с)
порыв
(м/с)
P ср
(гПа)
P мин
(гПа)
P макс
(гПа)
Po ср
(гПа)
Po мин
(гПа)
Po макс
(гПа)
общ,
балл
нижн,
балл
ночь
мм
день
мм
сумма
мм
высота
см
покры-
тие
дожд снег туман мгла метель позёмок гроза смерч п.буря п.позём. град голо-
лед
изм. сн.отл.
94100 Калумбуру 19.04.2019 +28.0 +22.9 +36.6 69 34 +30 +40 +40 1.6 6 1011.2 1008.7 1013.3 1008.5 1006.0 1010.6 0.0 0.0 0.0 16
94102 Остров Троутон 19.04.2019 +29.6 +28.1 +32.6 72 59 +38 +45 +45 3.0 5 1011.7 1009.4 1013.8 1010.8 1008.5 1012.9 0.0 16
94103 Остров Брауз 19.04.2019 +29.4 +28.5 +31.3 +24 +26 +26 0.9 3 1011.3 1009.1 1013.3 1010.8 1008.6 1012.8 16
94116 Остров Дам-ин-Мирре 19.04.2019 +27.6 +23.8 +33.8 79 58 +32 +43 +43 1.6 4 1010.8 1008.6 1013.2 1010.3 1008.1 1012.7 0.0 0.0 0.0 8
94119 Гарден-Пойнт 19.04.2019 +27.5 +23.2 +33.6 78 59 +31 +43 +43 1.6 4 1010.9 1008.5 1013.0 1008.7 1006.3 1010.8 0.0 8
94120 Дарвин 19.04.2019 +28.5 +24.3 +33.7 67 40 +32 +39 +39 3.5 5 30 км 1011.2 1008.6 1013.4 1007.2 1004.6 1009.4 1.4 1.0 0.0 16
94122 Остров Батерст 19.04.2019 +27.8 +22.7 +33.2 75 51 +30 +45 +45 2.9 4 1011.0 1008.6 1013.3 1010.3 1007.8 1012.4 0.0 16
94125 Батчелор 19.04.2019 +27.5 +21.7 +34.1 68 38 +30 +38 +38 2.1 5 1011.2 1008.5 1013.7 999.3 996.7 1001.8 0.0 8
94127 Пойнт Стьюарт 19.04.2019 +28.7 +23.9 +32.3 74 59 +35 +42 +42 4.1 5 1010.9 1008.6 1012.9 1011.2 1008.4 1012.7 0.0 8
94128 Маяк Кейп-Дон 19.04.2019 +26.6 +20.1 +34.5 71 37 +27 +38 +38 1.5 5 1011.4 1008.5 1014.0 1006.4 1003.5 1009.0 0.0 8
94130 Манбуллу Ксиро 19.04.2019 +30.6 +26.0 +36.8 40 22 +30 +35 +35 3.0 5 1011.8 1009.1 1014.9 1004.0 1000.5 1006.2 0.0 8
94131 Тиндал 19.04.2019 +27.4 +19.6 +35.2 58 29 +23 +36 +36 3.9 8 1011.6 1008.9 1014.3 996.3 993.7 999.0 0.0 16
94135 Остров Маклер 19.04.2019 +28.5 +25.6 +30.6 77 72 +35 +42 +42 8.5 10 1010.9 1009.0 1012.5 1011.0 1008.7 1012.2 0.2 4 8
94137 Джаберу 19.04.2019 +29.2 +22.6 +35.0 60 40 +29 +39 +39 2.9 5 1011.3 1008.5 1013.4 1008.1 1005.3 1010.2 5.5 5.5 0.0 8
94139 Уорруви 19.04.2019 +28.5 +25.7 +31.5 74 66 +36 +42 +42 5.3 7 1011.6 1009.5 1013.3 1009.4 1007.3 1011.1 0.0 8
94140 Милинджимби 19.04.2019 +27.7 +24.6 +32.8 73 55 +31 +41 +41 3.3 4 1011.6 1009.6 1013.8 1010.0 1007.7 1011.9 6.0 3 8
94141 Центральное плато Арнем 19.04.2019 +26.4 +19.3 +32.6 58 37 +25 +34 +34 4.3 7 1011.5 1009.0 1013.5 965.3 962.9 967.2 0.0 8
94143 Булман Уимол 19.04.2019 +26.4 +20.5 +33.8 72 47 +25 +40 +40 2.3 5 1012.1 1009.9 1014.4 1000.3 998.1 1002.5 0.0 8
94147 Мыс Уэссел 19.04.2019 +28.8 +26.1 +32.1 72 63 +35 +44 +44 7.9 9 1011.4 1009.5 1013.4 1009.2 1007.3 1011.2 0.2 2 16
94150 Аэропорт Гоув 19.04.2019 +26.8 +23.9 +31.7 76 57 +32 +38 +38 4.2 7 1012.0 1010.3 1014.1 1006.0 1004.3 1008.0 5.3 4.9 0.0 16
94152 Борролоола 19.04.2019 +26.4 +19.2 +34.6 65 27 +22 +34 +34 2.5 5 1013.0 1010.7 1015.4 1011.1 1008.8 1013.5 0.0 8
94153 Аэропорт Грут-Айленд 19.04.2019 +26.1 +23.0 +31.4 84 71 +32 +40 +40 1.5 3 1012.3 1011.2 1013.8 1010.7 1009.6 1012.2 6.5 1.4 25.0 4 8
94170 Аэропорт Вейпа 19.04.2019 +26.6 +22.4 +32.4 71 54 +29 +40 +41 4.3 7 1011.8 1009.0 1014.3 1009.7 1006.9 1012.2 6.7 6.7 0.0 16
94171 База ВВС Scherger 19.04.2019 +26.1 +21.6 +33.1 72 48 +28 +38 +43 2.4 4 1011.9 1009.4 1014.0 1007.3 1004.9 1009.4 8.0 8.0 0.0 1 2 8
94174 Остров Хорн 19.04.2019 +28.0 +25.8 +30.8 72 64 +35 +40 +40 6.5 8 1011.6 1009.7 1013.4 1011.0 1009.1 1012.8 8.3 8.3 0.0 8
94182 Остров Коконат 19.04.2019 +28.9 +25.5 +34.0 +21 +28 +28 1.5 2 1011.0 1009.0 1012.8 1010.6 1008.6 1012.4 0.0 8
94183 Коэн аэропорт 19.04.2019 +25.3 +21.1 +30.5 71 56 +26 +36 +36 3.4 6 1012.5 1010.6 1014.5 994.4 992.5 996.4 0.0 8
94186 Аэропорт Локхарт 19.04.2019 +25.9 +21.9 +30.1 79 63 +30 +36 +39 4.4 6 1012.6 1010.9 1014.2 1010.6 1008.9 1012.2 6.0 6.0 0.0 2 1 8
94188 Мыс Флэттери 19.04.2019 +26.5 +22.4 +30.3 76 61 +32 +37 +37 7.4 9 1013.6 1012.0 1015.3 1011.4 1009.8 1013.1 0.0 1 1 8
94200 Мандора 19.04.2019 +30.6 +26.5 +38.5 72 32 +36 +47 +47 3.3 6 1009.7 1007.1 1011.3 1008.8 1006.2 1010.4 0.0 16
94203 Брум 19.04.2019 +29.5 +25.1 +33.3 80 66 +35 +46 +50 3.3 5 1010.6 1007.9 1012.7 1009.6 1006.9 1011.7 3.5 2.3 0.0 16
94204 База ВВС Curtin 19.04.2019 +27.1 +22.1 +36.4 80 48 +29 +47 +47 3.0 9 500 м 1010.0 1007.2 1012.7 1001.2 998.4 1003.9 9.0 9.0 0.0 1 1 3 16
94206 Фицрой-Кроссинг 19.04.2019 +30.9 +22.8 +39.1 42 18 +28 +38 +38 1.8 4 1010.3 1007.1 1013.1 997.3 994.2 1000.1 0.0 16
94207 Роули Шоалс 19.04.2019 +28.9 +28.5 +29.8 +24 +24 +24 5.6 7 1010.7 1009.0 1012.1 1009.8 1008.1 1011.2 0.0 16
94210 Остров Адель 19.04.2019 +29.1 +28.3 +30.0 +23 +25 +25 3.0 4 1011.4 1009.5 1013.3 1010.8 1008.9 1012.7 8
94212 Холс Крик 19.04.2019 +28.8 +19.6 +36.2 24 18 +21 +33 +38 3.7 10 1011.1 1007.9 1014.0 965.4 962.3 968.1 1.0 0.0 0.0 16
94216 Кунунарра 19.04.2019 +28.6 +21.6 +37.3 62 33 +29 +41 +43 2.0 5 5000 м 1011.0 1008.1 1013.7 1006.0 1003.1 1008.7 7.0 3.3 0.0 16
94217 Аэропорт Аргайл 19.04.2019 +30.9 +24.8 +37.1 34 26 +27 +37 +37 3.0 5 1011.4 1008.4 1014.2 992.8 989.9 995.6 0.0 8
94225 База ВВС Delamere Weapons Range 19.04.2019 +29.0 +23.0 +36.1 41 23 +27 +34 +40 3.8 6 1011.2 1008.3 1014.2 987.0 983.3 989.1 4.0 0.2 0.0 8
94231 Ладжаману 19.04.2019 +28.7 +22.2 +37.0 25 16 +22 +33 +33 3.8 5 1012.1 1009.2 1015.2 976.5 973.7 979.5 0.0 8
94232 Виктория-Ривер 19.04.2019 +29.8 +23.9 +37.5 33 19 +26 +34 +34 2.4 5 1011.3 1008.5 1014.5 1002.1 998.3 1004.3 0.0 8
94234 Дейли Уотерс 19.04.2019 +27.6 +18.7 +36.2 44 23 +21 +33 +33 2.9 5 1012.2 1009.3 1014.8 988.3 985.5 990.9 0.0 8
94238 Теннант-Крик 19.04.2019 +27.4 +22.9 +33.0 29 21 +24 +31 +31 4.8 7 1014.3 1011.8 1016.9 971.9 969.5 974.4 3.5 0.0 0.0 16
94239 Аэропорт Макартур Ривер Майн 19.04.2019 +28.4 +21.4 +35.4 56 18 +27 +34 +34 2.5 4 1013.0 1010.5 1015.5 1008.3 1005.8 1010.8 3.0 0.0 0.0 8
94248 Остров Центр 19.04.2019 +28.5 +25.4 +33.0 67 42 +34 +39 +39 6.1 7 1012.8 1010.8 1014.9 1011.4 1009.4 1013.5 0.0 16
94255 Камоауил 19.04.2019 +26.4 +19.9 +33.1 39 26 +21 +33 +33 4.4 7 1014.7 1012.2 1017.3 988.4 986.0 990.9 0.0 16
94260 Беркетаун 19.04.2019 +26.2 +19.8 +33.6 52 32 +22 +35 +35 3.8 6 1013.3 1011.4 1015.6 1012.6 1010.7 1014.9 0.0 8
94261 Рудник Century Mine 19.04.2019 +28.3 +23.7 +34.3 31 23 +24 +33 +33 3.4 5 1013.8 1011.7 1016.4 999.4 997.3 1002.0 0.0 8
94266 Нормантон 19.04.2019 +28.2 +21.7 +33.8 45 31 +25 +34 +34 3.3 5 1013.5 1011.4 1016.2 1011.3 1009.3 1014.0 5.0 0.0 0.0 8
94268 Кованьяма 19.04.2019 +26.8 +21.1 +33.4 65 40 +26 +37 +46 2.5 5 1013.0 1010.6 1015.2 1011.8 1009.4 1014.0 4.3 2.8 0.0 16
94274 Джорджтаун 19.04.2019 +25.4 +19.5 +32.0 54 39 +24 +33 +37 3.8 5 1014.2 1012.2 1016.3 980.2 978.2 982.2 6.0 0.0 0.0 8
94276 Палмервилл 19.04.2019 +23.1 +17.3 +30.5 78 55 +17 +33 +33 2.5 5 1013.3 1011.1 1015.3 990.1 988.0 992.1 0.0 8
94285 Остров Лоу 19.04.2019 +24.6 +22.6 +26.9 84 78 +30 +33 +33 8.8 10 1014.6 1013.1 1016.0 1014.2 1012.7 1015.6 0.0 2 4 8
94287 Кэрнс 19.04.2019 +23.3 +21.8 +26.7 84 79 +28 +32 +33 5.3 7 1015.2 1013.8 1017.1 1014.2 1012.8 1016.1 8.3 8.3 0.0 4 2 6 16
94289 Холмс Риф 19.04.2019 +26.9 +25.9 +27.4 +22 +23 +23 10.4 12 1013.2 1011.5 1015.1 1012.5 1010.8 1014.4 8
94290 Флиндер Риф 19.04.2019 +26.2 +22.8 +27.4 +20 +22 +22 11.4 13 1014.1 1012.5 1015.7 1013.4 1011.8 1015.0 16
94294 Таунсвилл 19.04.2019 +24.6 +21.1 +30.7 71 48 +25 +34 +36 4.4 9 1016.3 1014.5 1018.4 1015.3 1013.5 1017.3 7.3 3.5 0.0 1 2 16
94295 Лусинда 19.04.2019 +25.6 +23.6 +26.9 74 68 +30 +33 +33 7.0 9 1015.6 1014.0 1017.6 1014.5 1012.9 1016.4 0.0 8
94298 Марион Риф 19.04.2019 +26.1 +24.3 +27.0 +21 +22 +22 11.8 12 1014.3 1013.0 1015.8 1013.4 1012.1 1014.9 16
94299 Остров Уиллис 19.04.2019 +26.9 -0.1 +25.1 +28.4 75 71 +21 +38 +38 8.3 12 15 км 1012.9 1011.3 1014.8 1011.9 1010.2 1013.7 7.2 2.2 0.0 1 13
94300 Карнарвон 19.04.2019 +22.1 +19.2 +24.9 61 43 +19 +27 +27 8.4 11 1017.6 1016.0 1020.0 1016.9 1015.0 1019.5 9.8 9.8 0.0 16
94302 Лермонт 19.04.2019 +23.1 +17.9 +29.1 62 35 +19 +29 +29 6.6 11 1015.4 1013.3 1017.2 1014.8 1012.7 1016.6 0.0 16
94303 Остров Тевенард 19.04.2019 +25.8 +23.4 +28.8 58 43 +27 +32 +32 10.5 12 1014.0 1012.1 1015.7 1013.4 1011.5 1015.1 0.0 8
94306 Марди 19.04.2019 +27.8 +23.8 +32.5 44 28 +27 +32 +32 6.6 8 1012.4 1010.2 1014.2 1011.0 1008.8 1012.8 0.0 16
94308 Роборн аэропорт 19.04.2019 +30.5 +25.3 +36.9 41 27 +28 +37 +37 4.9 7 1011.1 1008.7 1013.1 1009.8 1007.4 1011.8 0.0 16
94312 Порт-Хедленд Apardoo 19.04.2019 +29.8 +23.7 +37.4 61 30 +29 +45 +45 5.2 6 1010.4 1007.9 1012.2 1009.6 1007.1 1011.4 0.0 16
94316 Параберду 19.04.2019 +25.7 +21.5 +31.9 43 30 +25 +30 +30 4.3 5 1012.4 1010.5 1014.4 965.1 963.3 967.0 4.3 0.0 0.0 16
94317 Ньюман 19.04.2019 +27.4 +23.1 +32.6 40 28 +25 +32 +32 4.1 6 1011.1 1009.4 1012.9 952.8 951.1 954.4 1.0 0.0 0.0 16
94319 Телфер 19.04.2019 +31.1 +27.1 +37.3 40 28 +31 +37 +46 3.4 8 1010.1 1008.4 1012.2 977.3 975.7 979.4 9.1 0.0 0.0 2 16
94321 Кинтор 19.04.2019 +28.2 +22.6 +35.0 15 10 +22 +30 +30 5.4 8 1014.0 1011.3 1016.9 963.2 959.8 965.1 8
94326 Элис-Спрингс 19.04.2019 +22.9 +10.8 +32.1 26 16 +11 +29 +29 3.8 7 1016.9 1013.9 1019.4 954.8 952.0 957.2 0.0 16
94327 Джервойс 19.04.2019 +23.2 +14.1 +31.8 39 21 +14 +29 +34 2.9 6 50 км 1017.3 1015.0 1020.2 979.8 977.4 982.4 3.0 0.0 0.0 16
94328 Виноградная ферма 19.04.2019 +23.8 +14.3 +31.7 28 18 +15 +28 +28 3.6 5 1015.8 1013.0 1018.3 952.1 949.5 954.4 0.0 8
94332 Маунт-Айза 19.04.2019 +25.1 +20.6 +31.8 41 24 +23 +30 +34 3.8 6 1015.6 1013.5 1018.0 977.0 975.0 979.4 7.0 3.3 0.0 16
94335 Клонкарри 19.04.2019 +26.8 +22.1 +32.4 37 26 +24 +31 +35 6.1 8 1015.3 1013.4 1017.8 994.1 992.2 996.5 2.8 0.0 0.0 8
94336 Фосфат-Хилл 19.04.2019 +24.4 +18.5 +31.2 46 28 +20 +30 +30 4.1 6 1016.5 1014.7 1018.9 983.7 981.9 986.0 6.3 0.0 0.0 8
94337 Джулия Крик 19.04.2019 +25.1 +17.3 +33.3 46 30 +18 +33 +36 5.6 8 1015.3 1013.3 1018.0 1001.2 999.2 1003.9 1.0 0.0 0.0 8
94338 Аэропорт Трепелл 19.04.2019 +24.2 +17.8 +30.8 47 29 +19 +30 +30 4.1 6 1016.4 1014.6 1018.9 986.1 984.3 988.5 6.0 0.0 0.0 8
94341 Ричмонд аэропорт 19.04.2019 +24.7 +16.1 +33.1 47 29 +16 +32 +32 5.6 9 1015.5 1013.0 1018.1 991.9 989.5 994.5 6.0 0.0 0.0 16
94342 Уинтон 19.04.2019 +22.7 +15.3 +31.2 53 31 +15 +31 +31 4.4 7 1017.1 1015.2 1019.7 995.1 993.2 997.6 0.0 8
94343 Хьюэнден 19.04.2019 +24.4 +17.1 +31.5 44 25 +18 +29 +32 5.1 8 1015.8 1013.5 1018.4 979.9 977.7 982.4 1.0 0.0 0.0 8
94346 Лонгрич 19.04.2019 +22.8 +15.7 +31.4 52 30 +15 +31 +32 4.2 5 1018.2 1016.2 1021.2 996.1 994.1 999.0 5.3 0.0 0.0 16
94363 Эмералд 19.04.2019 +22.8 +17.0 +30.0 57 32 +17 +30 +38 4.1 7 1018.9 1016.5 1021.5 996.9 994.7 999.5 1.0 0.5 0.0 16
94365 Прозерпин 19.04.2019 +23.6 +19.1 +29.1 78 60 +21 +35 +36 6.1 10 1017.0 1015.5 1018.5 1014.6 1013.2 1016.1 4.5 4.5 0.0 8
94367 Маккай 19.04.2019 +23.8 +20.9 +26.6 81 72 +26 +33 +35 6.1 8 1017.3 1016.0 1019.2 1013.8 1012.5 1015.7 5.7 5.7 0.0 2 16
94368 Гамильтон Айленд 19.04.2019 +24.1 +20.6 +25.1 83 80 +29 +31 +31 11.8 14 1016.2 1015.1 1017.8 1009.4 1008.3 1011.0 6.6 6.6 0.0 1 2 8
94370 Сэмюэл Хилл 19.04.2019 +23.3 +21.4 +27.3 78 61 +26 +31 +34 4.1 6 1018.2 1016.8 1020.1 1014.5 1013.1 1016.4 6.7 6.7 0.0 8
94371 Крил Риф 19.04.2019 +25.8 0.0 +24.2 +26.5 +21 +22 +22 11.1 12 1015.7 1014.7 1017.3 1015.0 1014.0 1016.6 8
94372 Остров Мидл 19.04.2019 +23.3 +20.4 +25.5 78 70 +28 +30 +30 8.8 10 1017.3 1016.1 1019.0 993.4 992.2 995.0 0.0 8
94373 Йеппун 19.04.2019 +23.8 +19.6 +27.3 76 65 +22 +32 +32 4.9 7 1018.7 1017.2 1020.6 1018.0 1016.5 1019.9 0.0 8
94374 Рокхемптон 19.04.2019 +24.0 +18.3 +30.6 65 36 +19 +32 +34 4.2 7 1018.7 1016.3 1020.8 1016.9 1014.5 1019.0 5.8 5.8 0.0 1 1 16
94376 Тангул 19.04.2019 +22.6 +15.0 +30.3 63 34 +16 +30 +32 3.9 8 40 км 1019.4 1017.0 1021.5 997.0 994.6 999.0 5.5 3.0 0.0 8
94378 Остров Рандл 19.04.2019 +23.8 +22.3 +25.0 +19 +21 +21 9.8 11 1018.3 1016.7 1020.1 1016.0 1014.3 1017.7 0.0 8
94379 Суэн Рис 19.04.2019 +25.5 +0.1 +25.0 +25.9 +21 +22 +22 10.9 12 1016.8 1015.3 1018.3 1015.8 1014.3 1017.3 8
94380 Гладстон 19.04.2019 +23.9 +20.2 +29.8 72 50 +23 +33 +33 5.6 7 1018.6 1016.5 1020.6 1009.9 1007.8 1011.9 0.0 8
94381 Гладстон аэропорт 19.04.2019 +24.5 +21.0 +29.9 64 46 +25 +33 +35 5.0 7 1018.9 1016.8 1020.9 1016.9 1014.8 1018.9 5.3 2.0 0.0 8
94387 Бандаберг 19.04.2019 +22.3 +18.3 +29.8 78 57 +19 +32 +34 5.3 9 1019.3 1017.5 1021.0 1015.6 1013.8 1017.3 4.0 3.8 0.0 2 1 2 8
94388 Остров Леди Эллиот 19.04.2019 +25.3 +24.0 +28.1 74 68 +29 +34 +34 7.9 9 1018.5 1016.9 1020.2 1018.0 1016.4 1019.7 0.0 16
94393 Фредерик Риф 19.04.2019 +25.5 0.0 +25.0 +25.8 +21 +21 +21 12.1 13 1015.2 1013.8 1016.9 1013.7 1012.3 1015.4 16
94394 Остров Като 19.04.2019 +25.0 0.0 +24.2 +25.6 0.0 0 1016.7 1015.0 1018.2 1015.9 1014.2 1017.4 16
94395 Клермон 19.04.2019 +21.2 +15.4 +28.7 59 31 +15 +29 +29 2.2 5 1018.5 1016.3 1021.0 987.4 985.3 989.9 0.0 16
94396 Роллстон 19.04.2019 +22.6 +13.7 +30.3 50 30 +15 +29 +29 3.5 5 1019.4 1017.1 1022.2 994.0 991.8 996.7 0.0 8
94399 Лочингтон 19.04.2019 +21.7 +13.9 +30.2 52 28 +15 +29 +29 2.1 5 1018.9 1016.8 1021.7 988.1 986.1 990.9 0.0 8
94403 Джеральдтон 19.04.2019 +18.2 +15.9 +21.4 59 43 +14 +23 +23 9.3 12 1018.0 1013.8 1022.1 1014.5 1010.3 1018.6 5.4 5.4 0.0 1 3 16
94417 Морава 19.04.2019 +15.2 +12.0 +19.4 69 41 +10 +18 +18 5.9 10 1016.7 1011.8 1021.4 985.4 980.7 990.0 0.0 2 16
94429 Маунт Магнет аэропорт 19.04.2019 +16.5 +14.4 +24.5 65 39 +12 +19 +19 6.4 9 1015.0 1012.3 1019.1 968.7 966.1 972.6 0.0 2 2 16
94430 Микатарра 19.04.2019 +19.3 +16.1 +26.9 56 44 +15 +26 +26 5.8 7 1013.9 1011.2 1017.6 955.7 953.2 959.2 5.7 2.5 0.0 16
94449 Лавертон 19.04.2019 +21.7 +16.8 +25.0 53 37 +16 +27 +27 6.7 9 1011.5 1008.7 1016.2 958.8 956.2 963.3 0.0 16
94450 Леонора аэропорт 19.04.2019 +20.9 +15.1 +25.2 46 31 +14 +27 +27 7.0 9 1011.6 1007.5 1017.0 969.4 965.5 974.6 4.3 2.2 0.0 16
94457 Уорбертон 19.04.2019 +29.4 +24.5 +35.7 26 14 +26 +31 +31 7.1 9 1012.1 1009.6 1013.5 960.3 957.9 961.6 0.0 8
94461 Джайлс 19.04.2019 +29.4 +26.0 +33.3 14 11 +24 +30 +30 7.0 11 1013.8 1011.3 1016.4 946.8 944.5 949.2 0.0 16
94462 Юлара 19.04.2019 +24.8 +16.9 +33.2 20 11 +19 +29 +29 3.1 7 1015.4 1012.1 1018.7 959.7 956.6 962.8 6.0 0.0 0.0 16
94474 Эрнабелла 19.04.2019 +23.5 +16.5 +30.5 23 14 +19 +27 +27 4.0 7 1016.7 1014.1 1018.8 937.7 935.3 939.6 0.0 8
94476 Однадатта 19.04.2019 +26.5 +20.7 +32.8 25 18 +21 +31 +31 5.9 10 1018.1 1015.0 1020.6 1004.4 1001.4 1006.9 0.0 16
94510 Чарвилл 19.04.2019 +24.5 +19.8 +30.3 34 23 +21 +28 +30 3.9 7 1020.4 1017.9 1023.2 985.3 983.0 988.1 2.3 0.0 0.0 16
94515 Рома 19.04.2019 +22.0 +13.8 +30.3 50 31 +15 +29 +34 3.5 7 1021.1 1018.8 1024.0 985.5 983.2 988.3 2.7 1.0 0.0 16
94517 Сейнт Джордж аэропорт 19.04.2019 +22.6 +15.2 +29.8 44 28 +16 +28 +28 3.8 6 1021.7 1019.6 1024.9 998.5 996.5 1001.6 0.0 8
94541 Инверелл 19.04.2019 +19.8 +14.4 +28.0 62 37 +14 +27 +28 3.1 5 50 км 1024.2 1021.9 1026.2 947.6 945.5 949.5 3.0 0.0 0.0 8
94542 Долби 19.04.2019 +20.8 +14.4 +27.5 65 41 +14 +28 +28 6.1 9 1021.4 1019.4 1023.2 981.6 979.7 983.3 0.0 8
94549 Кингарой 19.04.2019 +19.2 +14.0 +25.9 83 61 +15 +27 +27 4.5 7 1021.5 1019.9 1023.0 971.4 969.9 972.9 7.4 7.4 0.0 1 3 8
94552 Оки 19.04.2019 +19.7 +13.0 +26.1 76 53 +13 +28 +28 5.5 9 1021.9 1020.1 1023.7 974.9 973.1 976.6 6.5 5.7 0.0 1 1 16
94553 Аплторп 19.04.2019 +17.2 +14.5 +24.0 91 68 +14 +25 +25 3.1 4 1023.7 1022.5 1025.6 924.7 923.7 926.5 0.0 2 8
94555 Уорвик 19.04.2019 +18.9 +16.4 +25.4 85 69 +17 +27 +27 4.3 7 1022.6 1021.2 1024.4 967.7 966.4 969.4 0.0 8
94562 Университет Квинсленда 19.04.2019 +21.2 +14.8 +28.3 73 54 4.0 6 0.0 8
94566 Джимпи 19.04.2019 +20.5 +15.7 +25.6 92 76 +17 +29 +29 2.4 4 1020.7 1019.1 1022.2 1013.1 1011.5 1014.6 0.0 2 3 8
94567 Мэриборо 19.04.2019 +21.2 +17.9 +27.6 88 71 +18 +30 +30 4.6 8 2800 м 1019.9 1018.4 1021.4 1018.7 1017.2 1020.2 9.4 9.4 0.0 3 8
94568 Амберли 19.04.2019 +20.8 +14.1 +28.9 81 54 +14 +30 +33 3.3 8 1022.0 1020.2 1023.5 1019.1 1017.3 1020.6 7.4 7.3 0.0 2 3 8
94569 Саншайн-Кост 19.04.2019 +22.1 +19.4 +25.7 84 75 +21 +31 +32 6.0 8 1020.7 1019.2 1022.5 1020.3 1018.8 1022.1 6.1 5.0 0.0 7 2 6 8
94570 Тевантин 19.04.2019 +21.9 +19.7 +25.5 95 81 +23 +31 +31 3.9 5 1020.7 1019.4 1022.4 1019.8 1018.5 1021.5 0.0 2 4 8
94572 Лисмор 19.04.2019 +20.1 +16.5 +25.5 91 73 +17 +31 +33 2.1 6 500 м 1023.6 1022.2 1025.5 1022.5 1021.1 1024.4 8.0 6.8 0.0 6 3 6 16
94573 Казино 19.04.2019 +20.3 +16.2 +26.0 86 77 +16 +29 +29 2.9 6 1023.9 1022.4 1025.7 1021.4 1019.9 1023.2 0.0 2 5 16
94575 Арчерфилд 19.04.2019 +21.4 +17.2 +27.6 83 55 +17 +31 +33 3.3 8 5000 м 1022.1 1020.4 1023.7 1020.6 1018.9 1022.2 7.8 7.0 0.0 2 3 8
94576 Брисбен 19.04.2019 +22.0 +18.9 +28.0 81 57 +22 +30 +30 1.8 4 1022.1 1020.6 1023.8 1021.1 1019.6 1022.8 0.0 2 5 8
94578 Брисбен аэропорт 19.04.2019 +21.4 +17.9 +25.8 87 68 +18 +30 +31 4.3 6 6000 м 1021.9 1020.5 1023.5 1020.9 1019.5 1022.4 7.9 7.9 0.0 6 1 16
94580 Голд-Кост 19.04.2019 +22.6 +19.8 +25.5 95 88 +23 +33 +33 9.1 11 1022.2 1020.9 1024.0 1021.7 1020.4 1023.5 0.0 3 4 8
94584 Дабл Айленд Пойнт 19.04.2019 +23.2 +20.8 +25.0 83 74 +26 +31 +31 11.9 15 1019.4 1018.0 1020.8 1008.3 1006.9 1009.7 0.0 1 1 16
94588 Глен Иннес 19.04.2019 +15.7 +11.9 +21.7 79 61 +11 +23 +24 7.3 10 1024.8 1023.4 1026.5 906.9 905.7 908.4 8.6 8.6 0.0 2 1 1 16
94589 Ямба 19.04.2019 +23.2 +20.0 +25.6 85 79 +26 +32 +32 6.1 8 1024.0 1023.0 1025.7 1020.7 1019.7 1022.4 0.0 1 3 16
94592 Кулангатта аэропорт 19.04.2019 +21.9 +19.5 +26.2 85 73 +22 +30 +30 5.8 8 3000 м 1022.7 1021.3 1024.3 1022.1 1020.7 1023.7 9.1 9.1 0.0 5 2 4 8
94594 Мыс Мортон 19.04.2019 +22.9 +21.0 +25.4 83 72 +28 +30 +30 12.6 15 1020.4 1019.3 1022.0 1008.7 1007.6 1010.2 2 4 8
94596 Баллина 19.04.2019 +22.5 +19.4 +25.7 86 73 +23 +31 +31 4.7 6 4000 м 1023.4 1022.2 1025.1 1023.1 1021.9 1024.8 8.1 8.1 0.0 5 16
94598 Эванс Хед 19.04.2019 +21.8 +18.6 +25.4 84 74 +20 +32 +32 5.0 7 1023.6 1022.5 1025.3 1016.2 1015.1 1017.9 0.0 3 5 16
94599 Мыс Байрон 19.04.2019 +22.1 +20.1 +24.8 83 75 +23 +30 +30 8.9 12 1023.3 1022.1 1025.0 1011.8 1010.6 1013.5 0.0 1 6 16
94600 Мыс Натуралиста 19.04.2019 +12.0 +9.5 +16.5 68 41 +5 +12 +12 11.2 16 1013.4 1006.4 1019.7 1000.6 993.6 1006.8 0.0 2 6 16
94601 Мыс Лиувин 19.04.2019 +12.1 +8.7 +17.8 71 47 +5 +10 +10 14.3 21 1014.0 1008.3 1020.2 1012.4 1006.7 1018.5 0.0 2 7 16
94602 Остров Роттнест 19.04.2019 +14.6 +11.9 +19.9 65 44 +9 +20 +20 12.6 17 1014.5 1006.8 1020.3 1009.5 1001.8 1015.2 0.0 2 6 16
94603 Баджингарра 19.04.2019 +12.7 +8.8 +17.8 80 45 6.7 13 0.0 4 16
94604 Банбери 19.04.2019 +11.6 +8.1 +18.6 75 42 +6 +16 +16 4.9 9 1014.4 1006.0 1020.8 1013.7 1005.3 1020.1 0.0 1 7 16
94605 Мандура 19.04.2019 +13.5 +9.9 +19.9 75 48 +8 +20 +20 6.1 11 1014.7 1006.4 1020.9 1014.3 1006.0 1020.5 0.0 1 5 16
94608 Перт Монт-Лоули 19.04.2019 +13.5 +10.1 +19.2 75 49 +9 +19 +19 3.8 8 1015.3 1008.0 1020.6 1012.3 1005.0 1017.6 0.0 2 6 16
94609 Перт Джандакот 19.04.2019 +13.2 +9.4 +19.1 77 50 +7 +19 +21 6.6 14 1015.0 1007.5 1021.1 1011.4 1003.9 1017.5 8.0 8.0 0.0 5 1 4 16
94610 Перт 19.04.2019 +13.7 +8.6 +19.4 76 39 +6 +16 +16 5.5 13 8000 м 1015.1 1008.0 1020.7 1012.8 1006.5 1018.4 6.5 6.5 0.0 5 16
94612 Буллсбрук Пирс 19.04.2019 +13.0 +10.4 +19.1 82 47 +9 +15 +16 4.6 8 1015.7 1008.8 1020.9 1010.3 1003.4 1015.4 8.1 8.1 0.0 7 7 8
94614 Суонборн 19.04.2019 +14.1 +11.5 +20.0 76 42 8.0 14 0.0 1 5 16
94615 Гусберри Хилл 19.04.2019 +11.2 +7.7 +17.5 85 48 5.9 16 16
94617 Манджимап 19.04.2019 +7.5 +5.2 +14.6 90 77 +2 +7 +7 4.6 8 1012.6 1006.0 1018.6 979.1 972.7 984.9 0.0 7 8
94620 Дуэллингап 19.04.2019 +9.8 +6.4 +16.0 81 53 +3 +13 +13 4.8 9 1013.9 1005.8 1020.1 982.6 974.8 988.6 0.0 1 7 16
94628 Ньюдегейт 19.04.2019 +9.9 +5.5 +20.8 75 58 +1 +16 +16 6.7 12 1010.6 1003.0 1017.3 973.5 966.1 979.9 0.0 1 3 16
94631 Роки Галли 19.04.2019 +7.3 +4.9 +17.0 88 82 3.1 4 0.0 6 8
94637 Калгурли-Боулдер 19.04.2019 +17.7 +12.7 +23.2 53 36 +11 +26 +26 6.4 13 1010.9 1005.8 1017.1 968.9 964.0 974.9 9.0 5.0 0.0 16
94638 Эсперанс 19.04.2019 +15.5 +9.7 +21.4 64 40 +6 +23 +23 6.9 12 4500 м 1007.9 1001.5 1015.5 1004.8 998.4 1012.3 7.4 3.7 0.0 3 16
94641 Катаннинг 19.04.2019 +8.5 +4.8 +17.2 78 65 -1 +13 +13 5.8 8 1011.2 1003.5 1018.0 974.1 966.6 980.6 0.0 2 6 16
94644 Ред Рокс Пойнт 19.04.2019 +21.0 +15.9 +33.8 72 33 +14 +32 +32 6.8 10 1010.5 1004.6 1015.0 1010.1 1004.2 1014.6 0.0 2 5 16
94647 Евкла 19.04.2019 +22.8 +17.8 +30.3 55 21 +17 +28 +28 5.6 11 10 км 1011.6 1007.1 1015.6 1000.6 996.2 1004.6 9.5 9.5 0.0 3 1 16
94651 Наллабор 19.04.2019 +24.3 +15.2 +33.2 42 12 +15 +30 +30 5.3 11 8000 м 1013.4 1010.6 1017.5 1005.8 1003.0 1009.8 9.2 0.0 0.0 24
94653 Сидуна 19.04.2019 +25.5 +12.7 +34.2 35 15 +12 +32 +32 7.5 13 6000 м 1015.4 1012.9 1019.4 1013.5 1011.0 1017.5 6.7 1.5 0.0 24
94655 Таркула 19.04.2019 +27.3 +20.5 +34.7 22 14 +22 +31 +31 6.8 11 1017.8 1015.4 1019.9 1003.3 1000.9 1005.4 0.0 16
94659 Аэродром Вумера 19.04.2019 +25.3 +18.3 +32.9 26 15 +18 +30 +30 6.8 12 1019.5 1017.1 1022.1 999.8 997.4 1002.3 0.0 16
94662 Клив аэропорт 19.04.2019 +25.9 +16.7 +31.7 30 16 +16 +29 +29 8.4 13 1018.1 1016.1 1020.1 997.4 995.5 999.4 0.0 8
94672 Аделаида аэропорт 19.04.2019 +23.9 +16.1 +31.1 26 17 +16 +29 +29 5.0 8 30 км 1020.3 1017.7 1023.3 1019.3 1016.7 1022.3 5.6 0.0 0.0 24
94674 Ли-Крик 19.04.2019 +25.4 +17.6 +32.8 27 15 +19 +29 +29 5.6 9 1020.5 1018.2 1023.0 990.3 988.1 992.7 0.0 16
94675 Аделаида 19.04.2019 +24.5 +18.8 +32.0 27 16 +19 +29 +29 2.0 4 1020.8 1018.5 1023.2 1014.7 1012.5 1017.1 0.0 8
94677 Хиндмарш Айленд 19.04.2019 +19.6 +11.8 +26.2 37 23 +9 +25 +25 6.5 9 1021.1 1018.4 1024.8 1019.7 1017.0 1023.4 0.0 8
94678 Маунт Крофорд 19.04.2019 +20.4 +12.7 +29.5 29 20 +10 +28 +28 7.2 10 1021.8 1019.9 1023.8 960.7 958.9 962.6 0.0 16
94681 Нереутпа 19.04.2019 +20.7 +14.1 +28.2 26 19 +13 +26 +26 4.6 6 40 км 1022.3 1019.8 1024.7 989.7 987.3 992.0 9.0 0.0 0.0 16
94682 Локстон 19.04.2019 +18.6 +9.3 +30.0 41 19 +8 +29 +29 3.2 5 30 км 1023.1 1020.1 1025.7 1019.5 1016.5 1022.0 0.0 16
94683 Кутпо 19.04.2019 +21.8 +12.2 +31.0 30 20 +11 +28 +28 4.9 8 1020.1 1018.4 1022.3 977.3 975.7 979.4 0.0 16
94684 Юнта 19.04.2019 +20.5 +10.5 +29.9 32 17 +10 +28 +28 2.6 7 1022.0 1019.6 1024.3 986.7 984.4 988.9 0.0 16
94685 Кадина 19.04.2019 +23.6 +13.6 +31.8 33 19 +12 +30 +30 6.8 12 1019.3 1017.3 1021.1 1014.3 1012.4 1016.1 0.0 8
94686 Фоулерс Гэп 19.04.2019 +24.3 +14.7 +32.3 29 16 +16 +30 +30 3.6 7 1022.2 1019.7 1024.6 1000.9 998.5 1003.3 0.0 16
94690 Ламеру 19.04.2019 +18.4 +9.0 +29.3 39 21 +6 +27 +27 5.8 9 1023.1 1020.9 1025.4 1009.9 1007.7 1012.2 0.0 16
94691 Брокен-Хилл аэропорт 19.04.2019 +23.8 +17.7 +30.8 33 18 +17 +29 +29 4.5 8 1022.9 1020.7 1024.7 989.8 987.7 991.6 3.0 0.0 0.0 24
94693 Милдьюра 19.04.2019 +20.4 +11.6 +30.4 32 19 +11 +28 +33 2.9 6 35 км 1023.8 1021.1 1026.3 1017.7 1015.0 1020.2 3.3 0.0 0.0 24
94702 Хей 19.04.2019 +20.3 +12.2 +29.1 34 22 +11 +28 +28 2.1 3 1024.5 1022.7 1026.6 1013.5 1011.7 1015.5 0.0 8
94703 Бурк 19.04.2019 +24.1 +16.9 +31.2 32 20 +17 +29 +29 3.8 5 1022.5 1020.0 1025.1 1009.8 1007.4 1012.4 0.0 16
94710 Кобар аэропорт 19.04.2019 +22.8 +14.0 +29.9 37 24 +14 +29 +29 2.6 5 1023.8 1021.5 1026.3 998.1 995.9 1000.6 0.0 16
94711 Кобар 19.04.2019 +23.3 +17.3 +29.9 34 21 +17 +28 +28 3.6 5 1023.7 1021.6 1026.0 992.9 990.8 995.1 0.0 8
94712 Янг 19.04.2019 +17.7 +11.6 +26.3 71 34 +10 +27 +27 1.8 3 1025.7 1024.0 1027.8 980.8 979.2 982.8 0.0 8
94715 Форбс аэропорт 19.04.2019 +21.3 +15.6 +29.2 44 25 +16 +28 +28 1.1 4 1024.9 1023.0 1027.2 997.6 995.8 999.8 0.0 8
94727 Маджи 19.04.2019 +18.3 +12.2 +24.1 71 47 +12 +26 +26 2.5 5 1026.7 1024.7 1028.7 971.5 969.6 973.4 0.0 8
94729 Батерст аэропорт 19.04.2019 +17.0 +10.8 +23.7 71 36 +11 +25 +25 1.8 4 1027.3 1025.2 1029.5 941.2 939.3 943.2 0.0 16
94743 Гора Бойс 19.04.2019 +14.4 +11.7 +19.6 84 60 1.9 3 0.0 8
94746 Мосс Вейл 19.04.2019 +16.3 +13.6 +20.9 84 61 +12 +23 +23 4.0 6 1027.7 1026.0 1029.7 949.0 947.3 950.8 0.0 8
94749 Белламби 19.04.2019 +19.0 +16.6 +22.0 82 74 2.8 4 6.2 3.2 0.0 16
94750 Нора Хилл 19.04.2019 +18.3 +14.8 +23.5 84 62 +14 +27 +27 2.0 5 1027.1 1024.9 1029.2 1014.6 1012.4 1016.7 0.0 16
94752 Бадгери-Крик 19.04.2019 +19.0 +14.7 +24.8 83 55 +14 +28 +28 1.3 3 1027.4 1025.3 1029.7 1017.6 1015.5 1019.9 0.0 16
94754 Налло Маунтин 19.04.2019 +13.8 +11.5 +18.3 88 65 3.8 5 0.0 16
94755 Камден 19.04.2019 +19.0 +14.3 +24.9 80 48 +14 +27 +27 1.2 4 300 м 1027.4 1025.2 1029.7 1018.5 1016.3 1020.8 10.0 10.0 0.0 16
94757 Кэмпбеллтаун 19.04.2019 +19.1 +14.7 +25.4 80 53 1.3 3 0.0 16
94759 Террей Хилс 19.04.2019 +18.7 +16.0 +22.0 91 75 1.8 3 0.0 16
94760 Хорсли-Парк 19.04.2019 +19.0 +14.7 +24.4 80 56 0.8 3 0.0 16
94763 Пенрит 19.04.2019 +20.4 +16.2 +25.8 82 54 1.0 3 0.0 16
94765 Банкстаун 19.04.2019 +19.3 +15.3 +24.0 80 62 +15 +27 +36 1.4 4 1027.4 1025.4 1029.7 1026.5 1024.5 1028.8 5.0 1.5 0.0 16
94766 Кентербери 19.04.2019 +18.9 +15.2 +23.3 84 65 1.6 5 2000 м 0.0 16
94767 Сидней аэропорт 19.04.2019 +20.5 +18.1 +23.2 81 67 +19 +28 +31 3.7 6 14 км 1027.3 1025.6 1029.5 1026.7 1025.0 1028.9 3.6 2.4 0.0 5 24
94768 Сидней 19.04.2019 +20.7 +17.7 +25.2 75 58 0.0 0 1027.4 1025.7 1029.5 1022.6 1020.9 1024.7 0.0 16
94774 Ньюкасл 19.04.2019 +21.1 +20.0 +22.1 90 85 4.4 8 0.0 16
94776 Уильямтаун 19.04.2019 +19.2 +15.9 +23.9 91 74 +16 +29 +31 2.8 7 1026.6 1025.4 1028.5 1025.7 1024.5 1027.6 7.8 7.8 0.0 2 24
94785 Кемпси 19.04.2019 +19.4 +15.1 +24.6 94 71 +15 +30 +30 2.1 4 1026.0 1024.6 1027.7 1024.3 1022.9 1026.0 0.0 1 5 16
94786 Порт Маккуори аэропорт 19.04.2019 +19.9 +16.5 +23.5 92 80 +17 +30 +30 2.2 4 1026.1 1024.9 1027.7 1025.5 1024.3 1027.1 7.0 7.0 0.0 4 16
94802 Олбани 19.04.2019 +10.0 +0.3 +7.5 +13.3 89 83 +2 +12 +12 7.2 12 7000 м 1007.4 1003.5 1012.8 999.2 995.3 1004.5 9.8 9.8 0.0 2 3 5
94804 Остров Нептун 19.04.2019 +19.7 0.0 +16.9 +22.1 +15 +19 +19 8.1 12 1017.6 1014.6 1022.2 1013.8 1010.8 1018.4 0.0 23
94807 Парндана 19.04.2019 +20.4 +11.6 +29.4 49 23 4.6 7 0.0 20
94808 Ноарлунга 19.04.2019 +24.1 +16.7 +31.6 25 16 4.1 8 0.0 16
94809 Эдитбург 19.04.2019 +21.1 +17.6 +25.5 55 47 +17 +28 +28 4.5 8 1019.7 1017.0 1023.5 1018.9 1016.2 1022.7 0.0 16
94811 Парава 19.04.2019 +20.5 +12.8 +29.2 37 23 +10 +28 +28 3.1 9 1021.0 1018.8 1024.4 980.8 978.6 984.0 0.0 16
94813 Кейп Джаффа 19.04.2019 +16.4 +7.6 +24.9 55 29 +3 +25 +25 5.8 8 1022.9 1019.6 1027.1 1020.7 1017.4 1024.9 0.0 16
94814 Стратолбин 19.04.2019 +19.5 +9.2 +28.6 38 18 +7 +27 +27 4.0 7 1021.1 1018.4 1024.7 1014.1 1011.4 1017.7 0.0 8
94817 Кунаварра 19.04.2019 +14.9 +2.0 +24.9 56 21 +1 +24 +24 3.3 5 1024.1 1021.3 1027.8 1017.2 1014.4 1020.8 0.0 16
94820 Наракоорт аэропорт 19.04.2019 +15.9 +6.9 +24.6 52 25 +4 +24 +24 4.8 7 1023.8 1020.9 1027.4 1017.8 1014.9 1021.3 0.0 16
94821 Маунт-Гамбьер 19.04.2019 +14.4 +5.5 +23.1 61 29 +2 +23 +23 4.0 6 1024.4 1021.4 1028.4 1016.1 1013.1 1020.0 4.5 0.0 0.0 16
94822 Маяк Кэйп-Уиллоуби 19.04.2019 +19.4 +16.3 +23.4 60 48 +14 +26 +26 7.4 13 1020.7 1018.1 1025.0 1014.0 1011.4 1018.3 0.0 16
94826 Маяк Кэйп-Нельсон 19.04.2019 +14.7 +12.4 +17.3 77 67 +10 +16 +16 6.7 8 1025.1 1022.2 1028.6 1019.5 1016.6 1023.0 0.0 16
94827 Нхилл 19.04.2019 +16.4 +8.3 +25.6 47 24 +4 +25 +25 4.6 7 1024.6 1022.0 1027.0 1007.9 1005.4 1010.3 0.0 16
94828 Портленд 19.04.2019 +13.0 +6.0 +20.0 74 40 +4 +21 +21 3.5 6 1025.3 1022.4 1028.8 1015.5 1012.6 1018.9 2.0 0.5 0.0 16
94829 Гамильтон 19.04.2019 +14.3 +6.0 +22.4 54 24 +2 +22 +22 4.3 6 1025.3 1022.9 1028.0 996.4 994.1 999.1 0.0 16
94830 Порт Фейри 19.04.2019 +13.6 +6.7 +19.3 79 69 +5 +21 +21 3.3 6 1025.6 1022.7 1028.8 1024.4 1021.5 1027.6 0.0 16
94833 Гора Уильям 19.04.2019 +11.8 +3.4 +17.0 48 9 4.1 8 0.0 16
94835 Пиренис 19.04.2019 +13.0 +6.2 +19.7 45 24 3.9 8 0.0 16
94836 Стауэлл 19.04.2019 +13.6 +6.2 +22.4 54 22 +4 +22 +22 2.5 4 1025.3 1023.2 1027.3 997.2 995.2 999.2 0.0 8
94837 Уорнамбул 19.04.2019 +12.7 +3.6 +21.6 70 33 0 +22 +22 3.8 7 1025.8 1023.0 1028.9 1017.2 1014.4 1020.3 3.0 0.0 0.0 16
94838 Хоптаун 19.04.2019 +17.0 +9.1 +26.7 43 22 +7 +25 +25 3.6 5 1024.8 1022.4 1026.8 1015.5 1013.1 1017.5 0.0 16
94839 Чарльтон 19.04.2019 +15.4 +6.4 +24.4 53 26 +4 +24 +24 2.0 3 1025.2 1023.0 1027.2 1009.4 1007.3 1011.4 0.0 16
94840 Мортлейк 19.04.2019 +12.4 +1.5 +22.6 68 14 -2 +22 +22 2.6 5 1025.9 1023.2 1028.7 1010.1 1007.5 1012.9 0.0 16
94842 Маяк Кэйп-Отуэй 19.04.2019 +15.0 +13.5 +18.1 72 61 +12 +16 +16 6.4 8 1026.1 1023.7 1028.4 1016.1 1013.7 1018.4 0.0 16
94843 Суон-Хилл 19.04.2019 +17.0 +8.8 +26.6 41 21 +7 +25 +25 2.5 4 1024.8 1022.7 1027.1 1016.3 1014.2 1018.6 4.0 0.0 0.0 16
94846 Эйрис Инлет 19.04.2019 +14.9 +13.2 +17.8 71 59 2.8 4 0.0 16
94850 Остров Кинг аэропорт 19.04.2019 +11.6 +4.0 +17.2 81 61 0 +16 +18 5.0 7 1027.7 1025.2 1030.2 1023.3 1020.9 1025.8 3.3 3.3 0.0 24
94852 Балларат 19.04.2019 +13.7 +8.2 +21.9 55 18 +4 +21 +21 4.2 7 1025.8 1024.3 1027.4 974.3 972.8 975.8 0.0 16
94854 Авалон 19.04.2019 +14.4 +10.6 +19.4 70 49 +9 +20 +20 3.5 6 1026.4 1024.3 1028.9 1025.1 1023.0 1027.6 2.3 2.3 0.0 16
94855 Бендиго 19.04.2019 +15.0 +7.6 +23.7 53 24 +6 +23 +23 2.4 4 1025.2 1023.5 1027.0 1000.2 998.5 1001.9 0.0 16
94857 Брейкуотер 19.04.2019 +13.6 +7.6 +19.4 77 55 +8 +21 +21 1.9 4 1026.4 1024.4 1029.0 1024.8 1022.8 1027.4 0.0 16
94859 Редесдейл 19.04.2019 +14.8 +7.1 +24.4 52 22 2.3 4 0.0 16
94860 Уоллан 19.04.2019 +13.5 +6.7 +21.3 62 27 +2 +21 +21 4.5 8 1025.9 1024.7 1027.1 963.8 962.7 965.0 1.0 0.0 0.0 16
94862 Ярравонга 19.04.2019 +16.8 +7.4 +26.3 46 14 +7 +24 +24 1.5 3 1025.0 1023.5 1027.1 1009.6 1008.1 1011.6 0.0 16
94863 Шиокс 19.04.2019 +11.8 +5.0 +20.2 71 42 +3 +21 +21 2.2 3 1026.3 1024.3 1028.5 997.9 996.0 1000.1 0.0 16
94864 Мельбурн Эссендон 19.04.2019 +12.4 +2.8 +23.5 72 34 +2 +24 +24 1.0 4 1026.0 1023.7 1028.0 1015.9 1013.6 1017.8 0.0 16
94865 Лавертон 19.04.2019 +14.8 +7.3 +20.3 66 46 +4 +22 +22 3.2 5 1026.2 1024.1 1028.7 1023.7 1021.6 1026.2 0.0 24
94866 Мельбурн аэропорт 19.04.2019 +14.1 +6.5 +22.7 63 34 +4 +23 +27 2.8 4 30 км 1026.2 1023.9 1028.5 1012.6 1009.7 1021.4 3.5 0.3 0.0 24
94870 Мурабин 19.04.2019 +13.8 +7.5 +19.7 71 49 +7 +21 +21 2.1 4 1026.1 1023.9 1028.4 1024.6 1022.4 1026.9 3.0 0.0 0.0 16
94872 Ферни Крик 19.04.2019 +13.2 +6.9 +19.8 65 41 +5 +22 +22 1.6 5 1026.0 1024.8 1027.4 965.6 964.5 966.9 0.0 16
94874 Мангалор 19.04.2019 +15.2 +9.0 +24.5 50 21 +6 +23 +23 2.9 5 1025.3 1023.5 1027.2 1008.3 1006.6 1010.2 3.0 0.0 0.0 16
94875 Шеппартон 19.04.2019 +15.5 +6.2 +25.8 53 17 +5 +24 +24 1.5 4 1025.2 1023.6 1027.1 1011.5 1009.9 1013.4 0.0 24
94878 Хантерс Хилл 19.04.2019 +16.5 +13.6 +21.0 64 47 1.4 2 0.0 16
94881 Эйлдон 19.04.2019 +15.4 +8.5 +23.1 45 15 2.9 5 0.0 16
94886 Паунд-Крик 19.04.2019 +13.4 +5.1 +20.8 79 53 +4 +23 +23 3.1 7 1026.9 1024.6 1029.2 1026.5 1024.2 1028.8 0.0 16
94889 Вангаратта 19.04.2019 +15.8 +5.8 +26.5 48 15 +5 +24 +24 1.6 4 1025.2 1023.5 1027.4 1006.8 1005.2 1009.0 10.0 0.0 0.0 16
94891 Латроб-Вэлли 19.04.2019 +15.9 +9.8 +21.9 65 42 +8 +23 +23 3.8 6 1027.1 1024.9 1029.2 1020.3 1018.1 1022.4 6.5 6.5 0.0 16
94892 Рилл 19.04.2019 +16.6 +13.4 +21.1 67 47 +11 +23 +23 4.7 7 1026.5 1024.3 1028.8 1024.8 1022.6 1027.1 0.0 16
94893 Маяк Уилсонс Промонтори 19.04.2019 +15.8 0.0 +13.8 +17.2 73 63 +12 +15 +15 8.4 10 1027.1 1025.1 1028.7 1015.4 1013.4 1017.0 0.0 8
94894 Маунт Буллер 19.04.2019 +10.3 +8.2 +13.8 38 12 4.9 6 0.0 16
94898 Цербер 19.04.2019 +15.8 +13.1 +21.3 64 40 +12 +23 +23 2.7 4 1026.4 1024.2 1028.7 1024.7 1022.5 1027.0 0.0 16
94903 Фолс-Крик 19.04.2019 +9.7 +7.7 +12.3 78 67 +3 +10 +10 6.8 8 1027.3 1025.8 1028.1 831.9 830.7 832.6 0.0 16
94905 Маунт Хотэм аэропорт 19.04.2019 +11.2 +4.1 +18.1 72 40 +1 +18 +18 2.8 6 1027.1 1026.3 1027.8 881.0 880.3 881.6 0.0 8
94906 Маунт Хотэм 19.04.2019 +9.1 +7.4 +11.4 61 24 8.3 10 0.0 16
94907 Сейл Восток 19.04.2019 +15.7 +12.2 +19.9 76 55 0.0 0 0.0 24
94908 Омео 19.04.2019 +13.8 +8.6 +23.0 72 43 +8 +25 +25 2.8 6 1027.0 1024.5 1028.6 946.5 944.2 948.0 0.0 16
94910 Уогга-Уогга 19.04.2019 +21.1 +14.4 +28.3 51 26 +14 +28 +28 2.8 6 1024.9 1022.8 1027.4 999.6 997.6 1002.0 4.7 0.0 0.0 24
94911 Янки 19.04.2019 +15.0 +8.6 +19.0 78 62 +8 +20 +20 3.9 7 1027.4 1025.6 1029.3 1025.7 1023.9 1027.6 0.0 16
94912 Бэрнсдейл 19.04.2019 +15.1 +11.1 +20.2 73 50 +10 +22 +22 2.4 6 500 м 1027.4 1025.4 1029.6 1021.4 1019.4 1023.6 9.8 9.8 0.0 16
94913 Гелантипи 19.04.2019 +12.3 +8.1 +20.0 91 66 +6 +23 +23 2.9 6 1026.6 1024.9 1028.0 938.8 937.3 940.1 0.0 16
94914 Комбиенбар 19.04.2019 +14.1 +9.9 +19.8 84 70 +9 +22 +22 0.5 2 1027.2 1025.6 1029.0 952.7 951.2 954.3 0.0 16
94915 Долина Перишер 19.04.2019 +10.1 +4.2 +12.6 74 66 4.7 7 0.0 16
94919 Ханкобан 19.04.2019 +17.1 +12.1 +25.3 74 47 +11 +27 +27 0.8 3 1026.1 1024.4 1028.5 985.8 984.2 988.1 0.0 16
94921 Аэропорт Сноуи Маунтинс 19.04.2019 +14.3 +6.9 +22.8 76 36 +4 +24 +24 4.4 7 1027.3 1025.3 1029.0 920.1 918.3 921.6 9.7 6.7 0.0 16
94925 Таггеранонг 19.04.2019 +16.7 +11.1 +23.4 71 45 +10 +26 +26 1.6 4 1027.5 1025.0 1030.0 958.9 956.6 961.2 0.0 16
94926 Канберра 19.04.2019 +16.8 +12.2 +24.8 71 42 +11 +26 +29 2.0 4 1027.7 1025.2 1030.1 960.1 957.7 962.3 8.0 8.0 0.0 24
94927 Брейдвуд 19.04.2019 +15.6 +11.4 +22.8 83 49 +11 +25 +25 0.9 2 1028.2 1025.6 1030.2 950.5 948.1 952.4 9.7 9.7 0.0 16
94929 Бомбала 19.04.2019 +13.5 +8.8 +18.6 89 69 +7 +19 +19 2.6 4 1027.7 1025.6 1029.3 939.2 937.3 940.7 0.0 16
94930 Маунт Нова 19.04.2019 +14.7 +11.8 +19.9 74 56 1.0 2 0.0 16
94933 Остров Габо 19.04.2019 +17.2 +15.2 +19.1 79 66 +15 +20 +20 2.6 5 1027.7 1025.8 1029.2 1025.9 1024.0 1027.4 0.0 8
94934 Мыс Грин 19.04.2019 +17.5 +15.7 +19.8 81 73 +15 +23 +23 2.9 5 1027.7 1025.8 1029.4 1025.3 1023.4 1027.0 8
94935 Маллакоота 19.04.2019 +16.7 +14.2 +20.7 78 69 +13 +24 +24 2.9 5 1027.6 1025.7 1029.4 1024.9 1023.0 1026.7 0.0 16
94938 Улладалла 19.04.2019 +18.3 +15.6 +20.5 82 69 +15 +24 +24 2.2 3 1027.6 1025.3 1029.7 1023.2 1020.9 1025.3 0.0 1 16
94939 Остров Монтегю 19.04.2019 +18.4 +16.2 +20.4 79 69 +15 +24 +24 2.0 6 1027.5 1025.3 1029.4 1021.1 1018.9 1023.0 0.0 16
94951 Дуналли (Страуд-Пойнт) 19.04.2019 +11.7 +8.4 +15.4 65 48 +5 +15 +15 4.3 7 1030.3 1028.6 1032.5 1028.8 1027.1 1030.9 0.0 24
94954 Мыс Грим Бапс 19.04.2019 +12.4 +6.5 +16.8 71 48 0.0 0 1028.4 1026.7 1030.3 1017.2 1015.5 1019.1 0.0 24
94955 Шеффилд 19.04.2019 +9.5 +4.2 +14.5 74 60 +1 +14 +14 2.0 4 1029.5 1028.4 1031.3 994.1 993.0 995.8 0.0 16
94956 Страхан 19.04.2019 +9.5 +3.4 +16.2 80 52 +2 +16 +16 2.4 5 1029.0 1026.6 1031.1 1026.3 1023.9 1028.4 0.0 2 24
94957 Аус 19.04.2019 +7.2 +1.1 +16.0 83 48 -2 +15 +15 1.2 4 1030.2 1027.8 1032.9 1019.1 1016.7 1021.7 0.0 16
94959 Батлерс Гордж 19.04.2019 +5.4 +1.3 +13.5 85 63 1.1 3 0.0 1 1 16
94960 Таннак 19.04.2019 +6.9 -0.1 +14.9 79 45 -4 +15 +15 2.6 4 1030.0 1028.9 1031.9 974.7 973.7 976.6 0.0 16
94969 Лонсестон 19.04.2019 +10.4 +3.5 +18.4 76 49 1.0 2 0.0 16
94970 Хобарт 19.04.2019 +10.2 +6.0 +14.7 70 49 +3 +14 +14 3.0 4 1030.3 1028.8 1031.8 1024.0 1022.5 1025.5 0.0 8
94975 Хобарт аэропорт 19.04.2019 +10.1 +5.7 +15.1 69 42 +2 +14 +19 3.3 5 40 км 1030.5 1029.1 1032.8 1027.2 1025.8 1029.4 3.1 1.1 0.0 24
94977 Хартц Маунтинс 19.04.2019 +6.1 +2.1 +10.9 80 60 3.1 6 0.0 2 16
94980 Флиндерс-Айленд 19.04.2019 +12.3 +3.8 +18.9 79 45 -1 +19 +19 3.6 5 1028.9 1027.8 1030.3 1027.7 1026.6 1029.1 5.5 5.5 0.0 16
94983 Эддистоун Пойнт 19.04.2019 +14.6 +12.3 +17.1 69 60 +9 +16 +16 7.6 10 1029.9 1029.2 1031.1 1027.4 1026.7 1028.6 0.0 24
94987 Френдли Бичес 19.04.2019 +11.1 +5.7 +16.3 71 49 +2 +16 +16 2.9 4 1030.4 1029.4 1031.9 1023.6 1022.6 1025.1 0.0 16
94995 Остров Лорд-Хоу 19.04.2019 +22.6 +20.4 +24.8 76 70 +26 +30 +30 7.8 10 8000 м 1026.1 1025.0 1027.4 1025.2 1024.2 1026.5 4.3 4.3 0.0 3 16
94996 Остров Норфолк 19.04.2019 +21.0 +19.9 +22.6 72 64 +22 +27 +27 7.4 8 1024.8 1023.8 1025.8 1011.1 1010.1 1012.1 8
94998 Остров Маккуори 19.04.2019 +7.9 +6.1 +10.4 98 98 +2 +7 +7 3.8 7 <100 м 1015.5 1014.0 1017.9 1014.5 1012.9 1016.9 8.7 8.7 0.0 2 7 16
95101 Трускотт 19.04.2019 +28.1 +0.1 +24.6 +33.1 74 51 +33 +39 +48 2.1 7 9000 м 1010.8 1008.6 1012.9 1005.0 1002.8 1007.1 5.8 3.5 0.0 8
95111 Порт Китс 19.04.2019 +27.8 +23.5 +34.5 73 37 +30 +41 +41 1.6 4 1010.9 1008.6 1013.6 1007.6 1005.3 1010.3 0.0 16
95121 Милд Пойнт 19.04.2019 +26.8 +21.0 +34.1 77 48 +29 +40 +40 2.1 4 1011.1 1008.6 1013.4 1009.4 1006.9 1011.7 8
95142 Манингрида 19.04.2019 +27.2 +22.8 +32.3 71 55 +29 +39 +39 3.9 5 1011.2 1008.9 1013.1 1007.8 1005.6 1009.7 5.8 3.4 1.0 1 1 8
95146 Галивинку 19.04.2019 +26.3 +22.7 +31.5 83 74 +31 +41 +41 3.0 5 1011.6 1009.8 1013.2 1010.6 1008.8 1012.2 0.8 1 4 8
95204 Робак Запад 19.04.2019 +28.1 +23.8 +35.3 0.0 0 0.0 16
95205 Дерби 19.04.2019 +29.2 +3.7 +24.3 +29.2 78 69 +30 +36 +36 2.4 3 1011.7 1011.0 1013.3 1010.9 1010.2 1012.5 0.0 7
95214 Уиндем 19.04.2019 +30.4 +24.6 +37.6 54 33 +31 +41 +41 3.3 7 1010.8 1007.8 1013.2 1010.3 1007.3 1012.7 0.0 16
95283 Куктаун 19.04.2019 +25.4 +23.3 +29.4 78 71 +30 +38 +40 4.6 7 1014.0 1012.2 1015.7 1013.3 1011.5 1015.0 5.0 5.0 0.0 16
95286 Мариба 19.04.2019 +20.9 +18.3 +25.4 84 72 +22 +29 +29 4.5 7 1014.6 1013.1 1016.3 961.5 960.1 963.1 0.0 2 8
95292 Юг Джонстон 19.04.2019 +22.3 +21.4 +24.5 92 89 +27 +31 +31 2.3 3 1016.0 1014.8 1018.1 1013.9 1012.7 1016.0 0.0 6 8
95293 Вулшед 19.04.2019 +20.7 +18.2 +26.5 75 63 +19 +28 +28 2.0 3 1015.9 1014.3 1018.0 953.5 951.9 955.4 0.0 1 2 8
95295 Эр 19.04.2019 +23.6 +18.9 +29.3 69 51 4.0 6 0.0 8
95296 Лихау риф 19.04.2019 +24.6 +20.2 +28.8 77 66 +25 +34 +34 5.1 7 1016.0 1014.5 1017.8 1015.1 1013.6 1016.9 0.0 8
95303 Остров Варанас 19.04.2019 +26.5 +24.8 +28.7 60 45 +30 +35 +35 11.5 12 1012.8 1011.2 1014.6 1010.0 1008.4 1011.8 0.0 8
95304 Барроу-Айленд 19.04.2019 +26.1 +24.3 +27.8 60 49 +29 +33 +33 11.4 12 1013.0 1011.3 1014.8 1012.2 1010.5 1014.0 0.0 8
95305 Онслоу 19.04.2019 +25.7 +22.3 +30.8 48 30 +26 +31 +31 8.3 9 1014.4 1012.2 1016.2 1013.1 1010.9 1014.9 0.0 16
95307 Каррата 19.04.2019 +29.8 +24.4 +35.8 47 29 +28 +39 +39 5.8 8 1011.1 1008.7 1012.9 1010.4 1008.0 1012.2 1.0 0.0 0.0 16
95317 Марбл-бар 19.04.2019 +31.6 +24.7 +38.3 39 24 +29 +38 +38 2.0 4 1010.0 1007.6 1012.2 989.5 987.1 991.6 0.0 16
95322 Раббит Флат 19.04.2019 +27.3 +16.1 +35.6 22 13 +16 +32 +32 3.8 8 1013.0 1010.0 1015.9 975.0 971.8 977.5 0.0 16
95351 Блэколл 19.04.2019 +23.7 +19.1 +29.1 46 33 +20 +29 +29 3.6 5 1018.8 1016.9 1021.7 986.5 984.7 989.3 0.0 8
95367 Маккай 19.04.2019 +23.2 +19.9 +27.8 82 66 +23 +33 +34 6.3 9 1017.3 1016.1 1019.1 1016.7 1015.5 1018.5 2.8 2.8 0.0 8
95369 Сент-Лоренс 19.04.2019 +23.2 +19.0 +30.7 68 34 +21 +31 +31 2.6 5 1018.0 1015.7 1020.4 1016.9 1014.6 1019.2 0.0 8
95370 Уильямсон 19.04.2019 +23.8 +18.6 +30.1 68 39 +21 +31 +31 3.0 5 1018.0 1016.3 1019.9 1014.7 1013.0 1016.6 0.0 8
95402 Шарк-Бэй 19.04.2019 +20.6 +18.3 +23.9 58 41 +18 +25 +25 7.6 11 1017.9 1015.8 1021.3 1013.9 1011.8 1017.3 0.0 1 16
95448 Леинстер 19.04.2019 +19.9 +15.4 +23.5 56 44 +14 +27 +27 6.4 8 1012.0 1008.6 1016.5 955.8 952.6 960.1 6.4 0.4 0.0 16
95458 Кубер-Педи 19.04.2019 +25.7 +18.8 +31.9 23 5 +18 +30 +30 7.8 12 1018.2 1015.5 1020.6 992.0 989.3 994.3 4.0 0.0 0.0 24
95480 Марри 19.04.2019 +26.5 +17.7 +34.1 24 13 +17 +31 +31 5.9 10 1020.3 1017.5 1022.7 1014.4 1011.6 1016.7 0.0 24
95481 Мумба 19.04.2019 +24.9 +17.5 +33.2 24 15 +18 +31 +31 4.3 6 1019.8 1017.2 1022.6 1015.3 1012.7 1018.1 0.0 24
95482 Бердсвилл 19.04.2019 +25.2 +17.5 +33.6 41 19 +18 +31 +31 3.4 7 1018.5 1016.1 1021.3 1013.0 1010.7 1015.8 0.0 16
95485 Тибообера 19.04.2019 +24.7 +18.0 +32.3 22 12 +19 +28 +28 4.4 7 1021.5 1019.2 1024.4 1000.9 998.6 1003.7 0.0 24
95487 Месторождение Ballera 19.04.2019 +25.9 +18.8 +33.2 23 14 +20 +29 +29 4.5 7 1019.7 1017.4 1022.8 1006.3 1004.1 1009.4 0.0 8
95492 Таргоминда 19.04.2019 +25.5 +17.9 +32.0 26 15 +19 +29 +29 3.7 7 1020.7 1018.3 1023.8 1005.5 1003.1 1008.5 0.0 16
95527 Мори 19.04.2019 +23.9 +16.6 +30.1 45 24 +16 +29 +29 4.2 8 1022.9 1020.0 1025.9 997.4 994.5 1000.3 5.5 0.0 0.0 24
95529 Майлс 19.04.2019 +21.6 +13.6 +28.7 66 42 +13 +30 +30 2.9 5 1021.7 1019.5 1024.1 986.3 984.2 988.6 0.0 8
95543 Гейнда 19.04.2019 +20.7 +14.3 +27.8 79 50 +14 +31 +31 1.8 5 1020.2 1018.4 1022.0 1007.2 1005.4 1009.0 0.0 1 8
95551 Тувумба 19.04.2019 +18.6 +14.8 +23.8 81 59 +14 +26 +26 6.3 8 1022.6 1021.1 1024.2 949.5 948.1 951.0 8.2 8.2 0.0 1 8
95565 Хервей-Бей 19.04.2019 +21.8 +18.7 +26.5 85 72 +20 +31 +36 4.5 6 1019.4 1018.0 1020.9 1017.9 1016.5 1019.4 3.5 3.4 0.0 1 5 8
95566 Бирберрум 19.04.2019 +20.5 +17.6 +26.2 85 69 1.6 4 0.0 5 8
95570 Графтон аэропорт 19.04.2019 +19.6 +16.5 +23.7 94 81 +17 +30 +36 2.9 5 8000 м 1024.8 1023.6 1026.6 1021.8 1020.6 1023.5 4.9 4.4 0.0 3 5 16
95571 Графтон 19.04.2019 +19.6 +16.9 +22.5 94 88 2.7 5 0.0 2 4 16
95572 Намбор 19.04.2019 +21.0 +19.1 +25.4 89 76 +23 +30 +30 1.4 2 1021.2 1019.7 1022.8 1014.9 1013.4 1016.5 0.0 2 6 8
95575 Бодесерт 19.04.2019 +21.3 +14.9 +27.7 +16 +22 +22 1.8 4 1022.5 1021.0 1024.0 1016.8 1015.3 1018.3 0.0 3 3 8
95591 Редклифф 19.04.2019 +21.7 +18.8 +25.9 83 74 +21 +30 +30 8.5 14 1021.6 1020.1 1023.1 1020.1 1018.6 1021.6 0.0 4 8
95607 Остров Гарден 19.04.2019 +14.9 +11.0 +20.3 72 57 +8 +21 +21 10.6 15 1015.3 1007.2 1021.2 1014.5 1006.4 1020.4 0.0 5 8
95610 Обсерватория Перт 19.04.2019 +10.0 +6.5 +15.7 87 60 5.3 10 0.0 1 7 16
95611 Басселтон 19.04.2019 +10.9 +8.3 +18.2 79 53 +5 +12 +12 6.6 11 1014.2 1007.3 1020.7 1012.2 1005.3 1018.7 0.0 3 7 16
95612 Гингин 19.04.2019 +13.4 +9.4 +18.9 77 41 +8 +16 +16 6.8 13 1015.6 1009.2 1021.0 1006.9 1000.5 1012.2 0.0 5 7 16
95617 Национальный парк Шеннон 19.04.2019 +7.6 +5.7 +15.7 3.9 6 0.0 7 8
95621 Колли Восток 19.04.2019 +10.0 +6.4 +16.0 77 58 2.4 4 0.0 6 8
95625 Кандердин 19.04.2019 +12.9 +8.4 +17.8 71 49 +5 +14 +14 6.5 9 1014.0 1006.2 1020.1 988.8 981.2 994.7 7.1 7.1 0.0 2 2 2 16
95629 Дауоллину 19.04.2019 +13.2 +9.1 +17.5 71 42 +7 +16 +16 5.6 8 1015.5 1009.4 1020.6 978.1 972.2 983.0 0.0 2 8
95632 Бриджтаун 19.04.2019 +9.0 +6.0 +16.1 87 69 +4 +15 +15 2.0 5 1013.0 1005.5 1019.9 992.0 984.6 998.7 0.0 3 7 16
95634 Саутерн Кросс 19.04.2019 +13.5 +7.5 +20.4 64 41 +5 +19 +19 7.6 13 1012.5 1007.2 1018.4 972.5 967.4 978.2 6.9 5.9 0.0 2 16
95635 Хоптаун 19.04.2019 +13.3 +8.5 +22.5 72 47 +5 +19 +19 6.5 12 1008.6 1001.5 1016.5 1005.5 998.4 1013.3 0.0 2 16
95636 Джакап 19.04.2019 +9.4 +4.9 +18.4 79 64 +1 +12 +12 6.4 9 1009.5 1002.2 1016.6 974.1 967.0 980.9 0.0 1 3 16
95637 Озеро Грейс 19.04.2019 +10.4 +6.2 +20.0 74 56 +3 +16 +16 5.4 9 1011.3 1003.3 1018.1 978.2 970.4 984.7 0.0 2 3 16
95638 Эсперанс 19.04.2019 +14.4 +7.7 +21.8 65 41 +4 +23 +23 9.0 12 6000 м 1008.5 1002.6 1015.7 991.9 986.1 999.0 6.9 3.0 0.0 1 2 8
95639 Салмон Гамс 19.04.2019 +15.9 +8.3 +22.4 52 35 5.6 9 0.0 16
95640 Уондеринг 19.04.2019 +10.6 +7.0 +16.7 77 57 3.4 6 0.0 4 8
95641 Уичклифф 19.04.2019 +11.3 +7.1 +16.4 68 44 +7 +12 +12 6.3 8 1014.5 1008.4 1020.4 1005.0 998.9 1010.8 0.0 4 6 8
95642 Норсман 19.04.2019 +15.6 +9.4 +22.0 59 41 +7 +21 +21 7.0 13 1009.8 1004.5 1016.5 979.4 974.2 985.9 0.0 2 8
95644 Мунглинап Запад 19.04.2019 +13.1 +6.1 +20.0 65 41 +2 +21 +21 7.1 12 1008.7 1002.3 1016.1 983.1 976.9 990.4 0.0 1 16
95646 Форрест 19.04.2019 +23.9 +17.3 +30.8 51 21 +16 +29 +29 7.8 14 1011.2 1007.0 1014.6 992.6 988.5 995.9 9.6 2.4 0.0 1 16
95647 Уолпол Север 19.04.2019 +9.0 +6.8 +17.4 87 72 +2 +15 +15 5.3 8 1011.1 1003.4 1017.4 1002.4 994.8 1008.7 0.0 4 7 16
95654 Уудинна 19.04.2019 +25.3 +16.2 +33.2 29 13 +16 +30 +30 6.8 11 1017.4 1014.9 1019.5 1007.1 1004.7 1009.2 0.0 8
95658 Олимпик Дэм 19.04.2019 +25.9 +16.5 +33.2 26 15 +17 +30 +30 5.0 9 1019.3 1016.8 1021.6 1007.6 1005.1 1009.9 0.0 16
95659 Минлатон 19.04.2019 +24.3 +16.3 +32.4 30 15 +15 +30 +30 9.0 12 1019.1 1016.7 1022.6 1015.2 1012.8 1018.7 0.0 16
95661 Порт-Линкольн 19.04.2019 +23.6 +13.7 +33.9 51 15 +13 +31 +31 5.2 12 1017.6 1014.3 1022.5 1016.6 1013.3 1021.5 9.0 0.0 0.0 16
95662 Миннипа Пирса 19.04.2019 +25.8 +18.4 +32.3 26 13 7.8 12 0.0 8
95663 Камминс 19.04.2019 +24.7 +16.6 +34.1 39 16 +16 +32 +32 6.4 11 1017.4 1014.7 1021.2 1010.2 1007.5 1014.0 0.0 16
95664 Уиолла 19.04.2019 +24.0 +13.1 +33.8 39 15 +12 +31 +31 4.9 9 1019.2 1016.7 1021.6 1018.0 1015.5 1020.4 4.0 0.0 0.0 16
95666 Порт Огаста 19.04.2019 +24.7 +14.5 +34.0 35 14 +14 +31 +31 4.8 11 1019.4 1016.8 1021.8 1017.7 1015.1 1020.1 0.0 16
95670 Сноутаун 19.04.2019 +23.6 +15.5 +32.7 28 14 +15 +30 +30 5.6 9 1020.3 1017.6 1022.9 1007.4 1004.7 1009.9 0.0 16
95671 Розворти 19.04.2019 +24.3 +17.4 +34.0 24 14 +16 +31 +31 8.4 11 1019.9 1017.4 1022.1 1012.1 1009.6 1014.3 0.0 8
95676 Эдинбург 19.04.2019 +24.9 +18.2 +34.2 22 14 +18 +31 +31 6.3 10 1020.4 1017.7 1023.2 1018.4 1015.7 1021.2 5.0 0.0 0.0 16
95677 Парафилд 19.04.2019 +24.7 +18.6 +33.4 23 14 +19 +31 +31 4.9 7 1020.3 1017.7 1022.9 1019.1 1016.5 1021.7 1.0 0.0 0.0 16
95678 Маунт Лофти 19.04.2019 +20.2 +11.1 +27.4 34 24 3.1 5 0.0 16
95687 Ренмарк 19.04.2019 +20.0 +9.4 +31.0 31 20 +9 +29 +29 3.1 5 1022.9 1020.0 1025.3 1019.1 1016.2 1021.5 0.0 16
95695 Уилкания 19.04.2019 +23.4 +15.8 +31.9 29 15 +16 +29 +29 3.3 5 1022.8 1020.5 1025.5 1011.6 1009.3 1014.3 0.0 16
95697 Айванхо 19.04.2019 +23.0 +13.8 +31.1 32 21 +13 +29 +29 2.9 4 1023.4 1021.3 1025.8 1011.5 1009.4 1013.9 0.0 16
95699 Уафт Клифс 19.04.2019 +25.4 +18.5 +31.5 26 16 +19 +29 +29 4.6 7 1022.4 1020.0 1025.3 1003.8 1001.5 1006.7 0.0 16
95704 Гриффит 19.04.2019 +22.2 +14.6 +30.4 35 22 +15 +30 +30 3.2 5 1024.5 1022.6 1026.8 1008.4 1006.6 1010.7 5.5 0.0 0.0 16
95705 Янко 19.04.2019 +21.7 +14.1 +29.6 34 25 2.7 5 0.0 16
95706 Наррандера 19.04.2019 +20.3 +12.2 +29.5 42 24 +12 +28 +31 1.9 8 1024.9 1023.0 1026.9 1007.7 1005.8 1009.6 6.0 0.0 0.0 16
95708 Кондоболин 19.04.2019 +21.9 +14.2 +29.8 40 25 +14 +29 +29 1.9 6 1024.7 1022.9 1027.3 1001.7 1000.0 1004.3 0.0 16
95709 Уайлонг Запад 19.04.2019 +20.3 +12.9 +28.7 48 26 +13 +28 +28 1.7 5 1025.1 1023.4 1027.9 994.8 993.1 997.4 0.0 16
95710 Транги 19.04.2019 +22.5 +17.4 +29.3 48 25 +17 +28 +28 3.1 6 1024.9 1022.8 1027.8 999.5 997.4 1002.3 0.0 16
95715 Уолджетт 19.04.2019 +21.8 +12.5 +29.6 43 26 +12 +29 +29 3.6 6 1023.1 1021.0 1026.1 1007.4 1005.3 1010.3 0.0 16
95716 Гоулберн 19.04.2019 +17.2 +11.3 +23.8 77 44 +12 +26 +33 2.3 4 1027.8 1025.7 1030.2 953.0 951.0 955.2 7.7 6.7 0.0 16
95717 Паркс 19.04.2019 +21.1 +14.2 +28.6 46 25 +14 +28 +28 3.6 7 1025.3 1023.3 1027.5 987.2 985.3 989.4 3.0 0.0 0.0 16
95718 Кунамбл 19.04.2019 +22.2 +16.0 +28.2 51 34 +16 +29 +29 3.7 7 1023.8 1021.8 1026.6 1002.4 1000.5 1005.2 0.0 16
95719 Даббо 19.04.2019 +21.1 +13.0 +29.0 57 27 +12 +28 +28 4.4 8 1025.3 1023.0 1028.0 991.8 989.6 994.4 0.0 24
95721 Коура 19.04.2019 +20.5 +15.2 +28.1 54 30 +15 +28 +28 1.4 3 1025.6 1023.6 1028.0 990.1 988.2 992.4 0.0 8
95722 Темора 19.04.2019 +20.8 +14.2 +28.1 53 27 +14 +27 +27 3.2 5 1025.6 1023.7 1028.2 992.4 990.6 994.9 0.0 16
95726 Ориндж 19.04.2019 +15.2 +9.7 +23.2 67 36 +8 +24 +24 1.9 4 7000 м 1027.6 1026.1 1029.8 919.3 917.9 921.2 4.0 0.0 0.0 16
95728 Кунабарабран 19.04.2019 +18.6 +13.7 +24.5 61 38 +13 +26 +29 3.8 6 1024.8 1022.9 1027.2 950.8 949.0 953.0 1.0 1.0 0.0 16
95734 Наррабри 19.04.2019 +22.7 +16.5 +28.6 48 31 +16 +29 +29 4.8 6 1023.3 1021.0 1026.2 996.5 994.2 999.3 0.0 16
95740 Ганнеда 19.04.2019 +21.4 +14.5 +28.1 56 31 +13 +28 +28 5.0 7 1024.2 1021.6 1026.9 993.4 990.8 996.0 0.0 16
95747 Меррерунди 19.04.2019 +16.3 +11.9 +21.9 84 59 +9 +25 +25 7.1 9 <100 м 1025.2 1023.9 1027.5 941.6 940.4 943.7 9.3 9.3 0.0 16
95748 Вуллонгонг 19.04.2019 +18.8 +14.8 +23.5 88 68 +15 +28 +28 2.2 5 1027.4 1025.8 1029.5 1026.4 1024.8 1028.5 9.7 9.7 0.0 16
95749 Киама 19.04.2019 +19.5 +18.3 +21.4 79 72 3.4 7 0.0 16
95753 Ричмонд 19.04.2019 +19.9 +15.2 +25.2 81 54 +15 +28 +40 1.3 3 1027.3 1025.0 1029.6 1024.9 1022.6 1027.2 6.2 6.2 0.0 16
95754 Меррива 19.04.2019 +18.3 +12.6 +24.0 80 56 +12 +27 +30 3.5 5 1026.7 1024.9 1029.0 982.4 980.7 984.7 5.4 5.4 0.0 16
95758 Скон 19.04.2019 +19.5 +13.6 +25.9 78 52 +13 +29 +31 3.3 6 5000 м 1025.8 1023.6 1028.4 999.6 997.5 1002.1 8.2 8.2 0.0 16
95762 Тамворт 19.04.2019 +20.9 +13.4 +27.9 56 32 +12 +29 +32 4.5 7 1024.7 1022.0 1027.1 978.6 976.0 980.9 5.5 0.0 0.0 24
95765 Сидней Олимпик Парк 19.04.2019 +19.9 +16.0 +25.2 85 59 1.0 3 0.0 16
95767 Куранбонг 19.04.2019 +18.2 +13.4 +23.3 88 68 +13 +28 +28 0.6 2 1027.3 1025.9 1029.3 1026.5 1025.1 1028.5 0.0 16
95770 Нора Хед 19.04.2019 +20.9 +19.8 +22.5 91 82 +23 +28 +28 4.4 8 1026.9 1025.8 1028.9 1024.6 1023.5 1026.6 0.0 16
95771 Сеснок 19.04.2019 +18.3 +13.4 +23.9 83 59 +13 +27 +27 1.8 5 1026.3 1024.7 1028.2 1018.9 1017.3 1020.8 0.0 16
95773 Армидейл 19.04.2019 +15.2 +12.7 +20.3 88 64 +10 +22 +22 5.8 7 8000 м 1025.5 1024.3 1027.1 903.8 902.8 905.3 9.1 9.1 0.0 16
95774 Мангров Маунтин 19.04.2019 +18.3 +16.2 +23.2 91 65 1.1 2 0.0 16
95784 Тари 19.04.2019 +19.1 +14.5 +23.8 88 68 +14 +29 +32 2.4 5 500 м 1026.3 1025.0 1028.1 1025.2 1023.9 1027.0 5.5 4.2 0.0 2 16
95806 Стенхаус Бэй 19.04.2019 +23.2 +17.1 +31.6 44 22 +16 +30 +30 6.3 9 1018.7 1016.0 1023.0 1013.5 1010.8 1017.8 0.0 16
95807 Кингскот 19.04.2019 +19.7 +11.8 +27.7 58 32 +10 +28 +28 4.5 7 1019.9 1017.1 1024.5 1019.1 1016.3 1023.7 1.7 0.0 0.0 16
95815 Кит 19.04.2019 +18.0 +8.5 +27.8 42 20 +6 +26 +26 4.7 8 1023.2 1020.3 1026.3 1019.9 1017.0 1023.0 0.0 16
95816 Роб 19.04.2019 +15.9 +6.8 +26.0 65 32 +4 +26 +26 4.0 7 1023.2 1019.7 1027.5 1022.8 1019.3 1027.1 0.0 16
95818 Мюррей Бридж 19.04.2019 +18.6 +8.9 +29.4 33 18 +7 +27 +27 4.9 11 1022.1 1019.0 1025.4 1016.7 1013.6 1019.9 0.0 8
95822 Дартмур 19.04.2019 +14.4 +4.8 +23.6 64 28 +2 +24 +24 2.3 4 1024.8 1021.8 1028.4 1018.6 1015.6 1022.2 0.0 1 2 16
95823 Падтауэй 19.04.2019 +17.5 +7.9 +25.2 46 24 4.4 6 0.0 8
95825 Кастертон 19.04.2019 +14.8 +6.0 +22.9 58 30 +3 +23 +23 3.0 4 1023.9 1021.4 1027.0 1008.2 1005.7 1011.2 0.0 8
95826 Портлэнд 19.04.2019 +15.0 +12.1 +17.1 +11 +17 +17 5.6 8 1025.0 1022.0 1028.4 1024.8 1021.8 1028.2 24
95827 Канагулк 19.04.2019 +13.7 +3.6 +24.0 61 25 +2 +23 +23 3.1 6 1024.9 1022.5 1027.1 1002.3 1000.0 1004.5 0.0 16
95831 Уолпеап 19.04.2019 +19.0 +10.6 +27.9 36 22 3.6 6 0.0 16
95832 Эденхоп 19.04.2019 +15.7 +6.7 +24.5 52 24 3.1 5 0.0 24
95833 Кайабрам 19.04.2019 +14.5 +5.9 +23.0 58 20 0.6 3 0.0 8
95835 Лонгеренонг 19.04.2019 +16.0 +9.7 +24.6 49 24 3.1 5 0.0 16
95836 Татура 19.04.2019 +14.9 +8.5 +23.6 58 26 1.8 3 0.0 8
95837 Рутерглен 19.04.2019 +16.9 +6.9 +27.1 49 23 1.6 4 0.0 16
95839 Хоршам 19.04.2019 +14.8 +5.6 +24.7 52 24 +2 +24 +24 4.5 6 1025.1 1022.7 1027.0 1009.0 1006.6 1010.9 1.0 0.0 0.0 24
95840 Уэстмер 19.04.2019 +11.8 +0.3 +22.9 58 16 -1 +21 +21 1.5 4 1025.7 1023.4 1028.4 998.6 996.3 1001.2 0.0 16
95845 Колак 19.04.2019 +13.4 +9.6 +19.3 79 48 +6 +20 +20 6.3 8 1025.9 1024.1 1028.3 994.7 993.0 997.1 0.0 16
95866 Аэропорт Эссендон 19.04.2019 +14.8 +9.3 +22.2 65 38 +7 +23 +23 2.9 5 1026.0 1023.9 1028.3 1016.5 1014.4 1018.8 3.0 3.0 0.0 16
95867 Скорсби Институт 19.04.2019 +13.8 +6.7 +22.8 66 35 0.9 2 0.0 16
95869 Дениликин 19.04.2019 +16.9 +9.0 +25.9 43 20 +8 +24 +24 2.0 4 1025.0 1023.4 1027.0 1013.7 1012.1 1015.7 0.0 16
95874 Вьюбанк 19.04.2019 +14.5 +7.1 +22.7 65 36 +6 +23 +23 1.4 3 1026.0 1023.5 1028.1 1018.0 1015.5 1020.1 0.0 16
95890 Яррам 19.04.2019 +14.1 +8.5 +19.7 74 58 +8 +21 +21 2.5 7 1027.5 1025.7 1029.3 1025.3 1023.5 1027.1 0.0 16
95896 Олбери 19.04.2019 +19.0 +11.5 +27.6 55 32 +11 +28 +28 1.2 4 1025.1 1023.3 1027.7 1005.5 1003.7 1008.0 9.0 0.0 0.0 16
95901 Маунт Бау Бау 19.04.2019 +10.9 +8.0 +14.9 33 12 2.9 3 0.0 16
95909 Тредбо 19.04.2019 +9.0 +7.6 +11.5 83 71 +1 +8 +8 11.9 16 1027.3 1025.2 1029.3 813.3 811.6 814.9 0.0 24
95913 Маунт Мурнапа 19.04.2019 +13.5 +10.8 +18.5 76 53 1.8 3 0.0 16
95916 Кабрамерра 19.04.2019 +12.5 +10.1 +15.3 77 67 3.7 5 0.0 16
95918 Орбост 19.04.2019 +16.0 +13.3 +20.4 79 62 +13 +23 +23 1.1 3 1027.2 1025.2 1029.3 1019.6 1017.6 1021.7 0.0 16
95925 Маунт Джинини 19.04.2019 +10.3 +7.3 +14.4 88 62 3.2 5 0.0 16
95929 Меримбула 19.04.2019 +17.4 +15.0 +20.2 76 68 +14 +23 +23 2.2 4 1028.0 1026.0 1029.7 1027.8 1025.8 1029.5 10.0 10.0 0.0 16
95931 Бега 19.04.2019 +17.1 +13.7 +21.7 83 69 +13 +26 +26 1.2 4 1027.9 1025.4 1029.9 1022.8 1020.4 1024.8 0.0 16
95936 Мельбурн Олимпик Парк 19.04.2019 +14.8 +8.7 +20.9 70 45 +8 +23 +23 1.5 3 1026.1 1023.7 1028.4 1025.2 1022.8 1027.5 0.0 24
95937 Моруя 19.04.2019 +18.5 +15.5 +21.1 79 67 +15 +24 +28 2.9 5 1027.7 1025.4 1029.7 1027.1 1024.8 1029.1 8.4 7.8 0.0 16
95940 Перпендикуляр Пойнт 19.04.2019 +18.6 +17.0 +20.2 85 75 +16 +23 +23 3.2 4 1027.5 1025.7 1029.6 1017.5 1015.7 1019.6 0.0 16
95952 Ньютон Крик 19.04.2019 +5.4 +1.1 +10.0 77 60 -5 +7 +7 6.3 10 1028.3 1027.0 1029.6 898.8 897.7 900.0 0.0 16
95954 Мыс Грим 19.04.2019 +12.1 +6.3 +16.1 78 59 +1 +14 +14 8.0 12 1028.0 1026.2 1029.9 1017.5 1015.7 1019.4 0.0 24
95956 Ланчеон Хилл 19.04.2019 +10.2 +5.0 +16.1 78 62 6.4 9 0.0 16
95957 Виньярд 19.04.2019 +10.8 +2.9 +16.1 79 62 -2 +15 +15 4.8 7 1029.2 1027.9 1030.9 1027.7 1026.4 1029.4 2.0 2.0 0.0 16
95958 Скотч Пик Дам 19.04.2019 +8.0 +4.2 +13.3 87 62 2.5 4 0.0 1 16
95959 Лайавени 19.04.2019 +4.1 -3.7 +11.0 91 69 -6 +8 +8 2.6 5 1029.1 1028.4 1030.3 906.7 906.1 907.8 0.0 16
95960 Девонпорт 19.04.2019 +11.6 +6.4 +17.5 73 55 +2 +17 +17 5.6 7 1029.9 1028.7 1031.4 1028.7 1027.5 1030.2 3.0 3.0 0.0 16
95961 Лоу Роки Пойнт 19.04.2019 +11.1 0.0 +7.1 +15.9 75 56 +3 +15 +15 4.5 6 1029.1 1026.8 1030.8 1024.9 1022.6 1026.6 0.0 8
95962 Уарра 19.04.2019 +6.9 +1.4 +12.8 83 55 1.8 3 0.0 16
95964 Лоу Хед 19.04.2019 +12.5 +8.3 +17.2 75 65 +4 +16 +16 6.9 10 1029.3 1027.9 1031.0 1028.9 1027.5 1030.6 0.0 16
95966 Аэропорт Лонстон 19.04.2019 +9.7 +3.8 +16.3 70 50 -1 +17 +17 3.3 5 1029.8 1028.3 1031.9 1009.4 1007.9 1011.5 4.5 4.5 0.0 24
95967 Мыс Бруни 19.04.2019 +10.8 +7.9 +14.2 75 57 +4 +14 +14 4.5 7 1029.7 1027.6 1031.7 1022.4 1020.3 1024.4 0.0 1 1 16
95969 Кресси 19.04.2019 +8.5 +1.3 +16.8 79 51 2.2 4 0.0 16
95974 Фингал 19.04.2019 +7.4 +0.6 +15.6 76 44 1.6 4 0.0 16
95979 Маунт Веллингтон 19.04.2019 +3.2 -0.6 +6.2 81 66 4.4 8 0.0 1 16
95985 Остров Суон 19.04.2019 +14.5 +12.0 +16.5 74 70 +9 +16 +16 7.4 8 1029.4 1028.6 1030.6 1027.5 1026.7 1028.7 0.0 16
95986 Остров Тасман 19.04.2019 +10.4 +9.0 +12.0 74 67 +7 +12 +12 3.5 9 1030.0 1028.7 1031.6 1001.0 999.7 1002.5 0.0 16
95988 Остров Марии 19.04.2019 +11.6 +9.3 +14.0 68 57 +7 +13 +13 3.1 6 1030.2 1028.9 1032.1 1026.8 1025.5 1028.7 0.0 16
96995 Остров Рождества 19.04.2019 +26.9 +25.5 +27.8 84 79 +33 +39 +39 6.1 7 1009.6 1007.8 1011.1 980.2 978.5 981.7 8
96996 Кокосовые острова 19.04.2019 +25.9 +23.1 +28.1 90 77 +32 +39 +39 6.9 10 500 м 1010.7 1008.8 1012.3 1010.2 1008.3 1011.8 8.9 8.9 4 8


САММАРИ за сутки: - архив


Саммари за месяц - Австралия
Саммари за год - Австралия

Выборка САММАРИ за определенную дату из архива: Австралия.

Выберите нужную дату (начиная с 1 января 1971 г.) и нажмите кнопку "Найти!".
Будут отображены суточные сводки погоды за запрошенную дату.
Щелкните по названию столбца для сортировки значений по возрастанию или убыванию.

Информация, представленная в этом разделе, является неофициальной и предназначена исключительно для личного использования в познавательных и исследовательских целях.


   Сменить регион